Time;durP1;ratioP1;P1;durP2;ratioP2;P2;SDS_P1;SDS_P2;PMS_P1;PMS_P2;Temp;Humidity;BMP_temperature;BMP_pressure;BME280_temperature;BME280_humidity;BME280_pressure;Samples;Min_cycle;Max_cycle;Signal;HPM_P1;HPM_P2
2021/12/17 00:04:50;;;;;;;12.43;11.13;;;;;;;6.35;87.17;97361.38;4389042;32;20315;-58
2021/12/17 00:07:16;;;;;;;11.73;10.53;;;;;;;6.32;86.47;97353.91;4367484;32;20378;-58
2021/12/17 00:09:44;;;;;;;13.43;11.80;;;;;;;6.35;86.60;97356.13;4373893;32;20277;-58
2021/12/17 00:12:12;;;;;;;12.10;10.90;;;;;;;6.08;87.54;97353.69;4358853;32;20297;-58
2021/12/17 00:14:43;;;;;;;10.50;9.50;;;;;;;6.16;87.51;97358.69;4378891;32;20295;-58
2021/12/17 00:17:13;;;;;;;10.47;9.47;;;;;;;6.17;86.84;97355.03;4382732;32;20294;-59
2021/12/17 00:49:48;;;;;;;9.57;8.57;;;;;;;5.82;87.23;97351.19;4388157;32;20339;-59
2021/12/17 00:52:13;;;;;;;10.53;9.50;;;;;;;5.81;87.17;97354.88;4377523;32;20606;-58
2021/12/17 00:54:42;;;;;;;10.10;8.83;;;;;;;5.66;87.22;97349.06;4396269;32;20279;-59
2021/12/17 00:57:19;;;;;;;10.00;9.00;;;;;;;5.33;88.34;97363.22;4398915;32;20184;-58
2021/12/17 00:59:48;;;;;;;9.97;8.97;;;;;;;5.37;88.94;97369.69;4383383;32;20315;-58
2021/12/17 01:02:17;;;;;;;11.40;8.87;;;;;;;5.37;88.37;97367.06;4398737;32;20331;-58
2021/12/17 01:04:47;;;;;;;10.87;9.83;;;;;;;5.48;88.26;97358.47;4398502;32;20300;-58
2021/12/17 01:07:13;;;;;;;9.73;8.83;;;;;;;5.60;87.64;97368.38;4392443;32;20282;-58
2021/12/17 01:09:39;;;;;;;9.80;8.80;;;;;;;5.74;87.00;97364.63;4395560;32;20284;-62
2021/12/17 01:12:05;;;;;;;8.57;7.77;;;;;;;5.66;87.14;97373.56;4391198;32;20203;-59
2021/12/17 01:14:32;;;;;;;8.90;8.00;;;;;;;5.55;87.46;97365.53;4393527;32;20294;-58
2021/12/17 01:16:59;;;;;;;11.00;9.10;;;;;;;5.72;87.01;97359.56;4402956;32;20288;-58
2021/12/17 01:20:07;;;;;;;9.60;8.70;;;;;;;5.78;86.57;97352.66;4396865;32;20372;-58
2021/12/17 01:22:45;;;;;;;9.17;8.27;;;;;;;5.51;87.47;97346.72;4390569;32;20321;-58
2021/12/17 01:25:36;;;;;;;9.60;8.70;;;;;;;5.69;86.84;97348.66;4387128;32;20329;-58
2021/12/17 01:36:08;;;;;;;10.43;8.90;;;;;;;5.57;86.79;97334.56;4392943;32;20290;-59
2021/12/17 01:44:07;;;;;;;11.37;8.83;;;;;;;5.64;86.89;97322.16;4391046;32;20420;-58
2021/12/17 01:46:35;;;;;;;10.60;8.83;;;;;;;5.72;86.79;97319.25;4384837;32;20272;-58
2021/12/17 01:59:50;;;;;;;9.50;8.47;;;;;;;5.84;85.96;97302.56;4381062;32;20322;-58
2021/12/17 02:02:16;;;;;;;8.13;7.43;;;;;;;5.72;86.51;97320.06;4380014;32;20334;-58
2021/12/17 02:04:43;;;;;;;9.20;8.30;;;;;;;5.67;86.87;97313.81;4389500;32;20287;-58
2021/12/17 02:07:08;;;;;;;9.87;8.87;;;;;;;5.55;86.94;97318.16;4383383;32;20191;-63
2021/12/17 02:20:30;;;;;;;8.97;8.07;;;;;;;5.70;85.45;97297.59;4393507;32;20356;-58
2021/12/17 02:28:50;;;;;;;8.33;7.60;;;;;;;5.81;84.93;97297.75;4394096;32;20295;-58
2021/12/17 02:31:25;;;;;;;8.47;7.67;;;;;;;5.80;85.09;97290.88;4391755;32;20354;-58
2021/12/17 02:33:51;;;;;;;8.40;7.60;;;;;;;5.63;85.81;97286.31;4394736;32;20323;-58
2021/12/17 02:36:21;;;;;;;8.57;7.77;;;;;;;5.66;85.97;97283.25;4383691;32;20280;-58
2021/12/17 02:38:47;;;;;;;9.10;8.10;;;;;;;5.79;85.13;97283.97;4379001;32;20292;-58
2021/12/17 02:46:40;;;;;;;8.80;7.93;;;;;;;5.87;85.09;97283.69;4391254;32;20299;-59
2021/12/17 02:49:07;;;;;;;9.27;8.37;;;;;;;5.65;85.89;97281.63;4397881;32;20371;-58
2021/12/17 02:51:33;;;;;;;9.13;8.33;;;;;;;5.44;87.03;97269.62;4391116;32;20184;-58
2021/12/17 02:53:59;;;;;;;8.80;7.97;;;;;;;5.71;85.96;97278.16;4392694;32;20347;-58
2021/12/17 02:56:25;;;;;;;8.53;7.73;;;;;;;5.84;85.58;97270.97;4402856;32;20235;-58
2021/12/17 02:58:51;;;;;;;8.63;7.87;;;;;;;5.85;85.45;97269.94;4406705;32;20194;-58
2021/12/17 03:01:17;;;;;;;8.53;7.73;;;;;;;5.88;85.15;97273.97;4404192;32;20204;-58
2021/12/17 03:03:48;;;;;;;7.33;6.73;;;;;;;5.92;85.20;97274.38;4406466;32;20283;-58
2021/12/17 03:06:20;;;;;;;8.87;8.00;;;;;;;6.05;84.42;97277.69;4406599;32;20359;-58
2021/12/17 03:08:47;;;;;;;7.87;7.17;;;;;;;6.03;84.25;97268.41;4395652;32;20301;-58
2021/12/17 03:11:21;;;;;;;8.27;7.57;;;;;;;6.08;83.86;97277.28;4393136;32;20275;-59
2021/12/17 03:13:49;;;;;;;7.30;6.70;;;;;;;5.95;84.11;97277.41;4397485;32;20313;-58
2021/12/17 03:24:07;;;;;;;7.73;7.03;;;;;;;6.04;83.66;97270.81;4392879;32;20202;-58
2021/12/17 03:26:33;;;;;;;7.27;6.67;;;;;;;5.88;83.74;97276.59;4404277;32;20276;-58
2021/12/17 03:29:02;;;;;;;8.43;7.57;;;;;;;5.93;83.37;97279.44;4405808;32;20290;-58
2021/12/17 03:31:28;;;;;;;7.60;7.00;;;;;;;5.74;84.70;97290.91;4396356;32;20196;-58
2021/12/17 03:34:02;;;;;;;8.00;7.30;;;;;;;5.86;84.72;97283.91;4406948;32;20275;-58
2021/12/17 03:36:28;;;;;;;7.10;6.50;;;;;;;6.03;84.01;97290.28;4393190;32;20187;-58
2021/12/17 03:38:53;;;;;;;7.90;7.10;;;;;;;5.89;84.14;97286.16;4393516;32;20309;-58
2021/12/17 03:41:27;;;;;;;6.93;6.23;;;;;;;5.97;83.62;97296.44;4407718;32;20245;-59
2021/12/17 03:43:54;;;;;;;7.57;6.87;;;;;;;6.07;83.44;97291.47;4407213;32;20229;-58
2021/12/17 03:46:21;;;;;;;8.07;7.27;;;;;;;6.11;83.42;97292.66;4393355;32;20279;-58
2021/12/17 03:48:47;;;;;;;7.17;6.53;;;;;;;6.09;83.27;97291.25;4407505;32;20276;-58
2021/12/17 03:51:16;;;;;;;8.47;7.73;;;;;;;5.95;83.58;97284.50;4393263;32;20437;-58
2021/12/17 03:53:44;;;;;;;7.60;7.00;;;;;;;5.89;84.56;97282.72;4406975;32;20279;-59
2021/12/17 03:56:20;;;;;;;8.70;8.00;;;;;;;5.99;84.34;97289.13;4393490;32;20294;-59
2021/12/17 03:58:45;;;;;;;7.73;7.03;;;;;;;5.95;84.40;97287.94;4407186;32;20306;-59
2021/12/17 04:01:29;;;;;;;8.60;7.80;;;;;;;6.11;83.87;97286.59;4393500;32;20288;-59
2021/12/17 04:03:54;;;;;;;8.37;7.57;;;;;;;6.15;83.78;97293.84;4407248;32;20292;-59
2021/12/17 04:06:20;;;;;;;8.60;7.87;;;;;;;6.15;83.81;97283.31;4401481;32;20295;-58
2021/12/17 04:08:45;;;;;;;8.87;8.07;;;;;;;6.28;83.49;97285.00;4407796;32;20271;-58
2021/12/17 04:11:25;;;;;;;8.93;8.13;;;;;;;6.19;84.01;97279.22;4396627;32;20176;-58
2021/12/17 04:13:56;;;;;;;8.50;7.70;;;;;;;6.18;83.74;97269.69;4392029;32;20198;-58
2021/12/17 04:16:26;;;;;;;9.07;7.87;;;;;;;6.24;83.96;97272.47;4388786;32;20345;-58
2021/12/17 04:18:52;;;;;;;9.13;8.23;;;;;;;6.24;83.99;97265.37;4404484;32;20283;-58
2021/12/17 04:21:17;;;;;;;9.10;8.20;;;;;;;6.31;83.73;97265.31;4412339;32;20271;-58
2021/12/17 04:23:44;;;;;;;9.30;8.40;;;;;;;6.27;83.87;97264.94;4406653;32;20376;-59
2021/12/17 04:26:28;;;;;;;8.70;7.83;;;;;;;6.27;84.03;97258.88;4392808;32;20187;-59
2021/12/17 04:28:54;;;;;;;8.40;7.60;;;;;;;6.46;83.49;97252.59;4400626;32;20279;-58
2021/12/17 04:31:30;;;;;;;8.30;7.60;;;;;;;6.32;83.71;97240.56;4393606;32;20297;-58
2021/12/17 04:33:56;;;;;;;8.67;7.97;;;;;;;6.31;83.90;97238.97;4392901;32;20347;-58
2021/12/17 04:36:27;;;;;;;9.43;8.37;;;;;;;6.18;84.67;97240.72;4392554;32;20317;-58
2021/12/17 04:38:53;;;;;;;8.13;7.43;;;;;;;6.00;85.38;97238.06;4406492;32;20188;-58
2021/12/17 04:44:33;;;;;;;7.63;6.87;;;;;;;6.06;84.97;97252.97;4392209;32;20200;-58
2021/12/17 04:46:53;;;;;;;7.67;6.90;;;;;;;5.95;85.38;97245.78;4383048;32;20347;-58
2021/12/17 04:57:36;;;;;;;8.83;6.57;;;;;;;6.23;84.23;97234.00;4405957;32;20302;-58
2021/12/17 05:00:18;;;;;;;8.70;7.90;;;;;;;6.28;84.03;97236.75;4392421;32;20283;-58
2021/12/17 05:02:48;;;;;;;7.13;6.43;;;;;;;6.11;84.48;97232.06;4399204;32;20287;-58
2021/12/17 05:05:14;;;;;;;7.47;6.70;;;;;;;5.79;85.74;97241.03;4398375;32;20328;-58
2021/12/17 05:07:46;;;;;;;7.80;7.10;;;;;;;5.60;87.33;97239.38;4406798;32;20389;-58
2021/12/17 05:23:06;;;;;;;6.77;6.27;;;;;;;5.86;85.14;97220.69;4398979;32;20279;-58
2021/12/17 05:25:31;;;;;;;6.73;6.23;;;;;;;5.87;84.53;97228.41;4387402;32;20251;-58
2021/12/17 05:28:01;;;;;;;7.27;6.67;;;;;;;5.73;85.64;97220.81;4406241;32;20210;-58
2021/12/17 05:30:31;;;;;;;5.97;5.57;;;;;;;5.55;86.21;97220.78;4406712;32;20206;-58
2021/12/17 05:32:57;;;;;;;6.60;5.87;;;;;;;5.64;86.56;97227.37;4406239;32;20303;-58
2021/12/17 05:35:23;;;;;;;5.53;5.13;;;;;;;5.70;86.11;97231.78;4406321;32;20294;-58
2021/12/17 05:37:48;;;;;;;6.53;6.03;;;;;;;5.74;85.72;97236.41;4391931;32;20286;-58
2021/12/17 05:40:14;;;;;;;6.03;5.60;;;;;;;5.86;85.62;97231.25;4390773;32;20184;-58
2021/12/17 05:42:41;;;;;;;6.63;6.07;;;;;;;5.97;85.17;97235.84;4387944;32;20184;-59
2021/12/17 05:45:20;;;;;;;5.30;4.97;;;;;;;6.00;85.07;97232.78;4406809;32;20217;-58
2021/12/17 05:47:46;;;;;;;5.63;5.10;;;;;;;6.08;85.13;97229.06;4379067;32;20289;-58
2021/12/17 05:50:11;;;;;;;5.50;5.10;;;;;;;6.03;85.32;97242.06;4405461;32;20279;-59
2021/12/17 05:52:36;;;;;;;4.80;4.50;;;;;;;5.90;85.45;97265.88;4406955;32;20189;-58
2021/12/17 05:55:02;;;;;;;4.80;4.50;;;;;;;6.00;85.43;97261.75;4378270;32;20184;-58
2021/12/17 05:57:27;;;;;;;5.00;4.60;;;;;;;6.09;85.54;97267.53;4404151;32;20198;-59
2021/12/17 05:59:53;;;;;;;4.53;4.23;;;;;;;6.14;85.35;97265.06;4402540;32;20203;-58
2021/12/17 06:02:19;;;;;;;6.63;4.77;;;;;;;6.05;85.31;97271.63;4389604;32;20245;-59
2021/12/17 06:04:45;;;;;;;4.87;4.47;;;;;;;6.00;85.43;97261.75;4403637;32;20297;-59
2021/12/17 06:07:10;;;;;;;4.50;4.10;;;;;;;6.24;84.82;97269.84;4389568;32;20283;-59
2021/12/17 06:09:36;;;;;;;4.10;3.87;;;;;;;6.22;84.86;97272.72;4391923;32;20185;-59
2021/12/17 06:12:01;;;;;;;4.43;4.10;;;;;;;6.30;84.36;97274.25;4406373;32;20231;-59
2021/12/17 06:14:27;;;;;;;4.73;4.30;;;;;;;6.19;84.52;97283.69;4390222;32;20206;-58
2021/12/17 06:16:52;;;;;;;4.67;4.37;;;;;;;6.15;84.75;97288.56;4404316;32;20187;-58
2021/12/17 06:19:19;;;;;;;4.83;4.33;;;;;;;6.18;84.89;97285.50;4382753;32;20287;-58
2021/12/17 06:21:47;;;;;;;4.50;4.13;;;;;;;6.05;85.33;97293.50;4388343;32;20184;-58
2021/12/17 06:24:12;;;;;;;4.33;4.03;;;;;;;5.88;85.98;97289.78;4406445;32;20283;-59
2021/12/17 06:26:37;;;;;;;4.90;4.50;;;;;;;5.95;85.89;97295.84;4407714;32;20271;-58
2021/12/17 06:29:03;;;;;;;5.50;4.23;;;;;;;6.11;85.19;97297.94;4405720;32;20203;-58
2021/12/17 06:31:28;;;;;;;5.07;4.77;;;;;;;6.07;84.91;97303.84;4405229;32;20279;-58
2021/12/17 06:33:53;;;;;;;4.83;4.43;;;;;;;5.91;85.34;97292.00;4391553;32;20188;-58
2021/12/17 06:36:37;;;;;;;5.30;4.90;;;;;;;5.71;85.56;97296.59;4403056;32;20211;-58
2021/12/17 06:39:02;;;;;;;4.90;4.60;;;;;;;5.81;85.10;97286.41;4391379;32;20218;-58
2021/12/17 06:41:35;;;;;;;5.10;4.70;;;;;;;5.71;85.15;97297.41;4407533;32;20267;-58
2021/12/17 06:44:01;;;;;;;4.67;4.30;;;;;;;5.77;85.32;97296.56;4394056;32;20177;-58
2021/12/17 06:46:33;;;;;;;6.27;5.10;;;;;;;5.91;84.61;97302.56;4394351;32;20275;-58
2021/12/17 06:49:16;;;;;;;5.40;5.00;;;;;;;5.82;84.52;97309.06;4394362;32;20325;-58
2021/12/17 07:10:30;;;;;;;6.70;6.20;;;;;;;5.36;83.70;97293.56;4407856;32;20347;-58
2021/12/17 07:21:20;;;;;;;6.23;5.77;;;;;;;4.77;86.50;97279.69;4407698;32;20284;-58
2021/12/17 07:30:53;;;;;;;6.37;5.87;;;;;;;4.43;88.13;97274.72;4414208;32;20301;-58
2021/12/17 07:34:44;;;;;;;9.40;6.27;;;;;;;4.65;87.63;97276.06;4414338;32;21943;-58
2021/12/17 07:39:39;;;;;;;13.53;6.70;;;;;;;6.16;92.60;97266.47;4407037;32;20431;-57
2021/12/17 07:42:04;;;;;;;22.43;6.90;;;;;;;6.57;91.55;97269.53;4405338;32;20279;-57
2021/12/17 07:44:30;;;;;;;9.93;6.00;;;;;;;6.94;88.54;97286.94;4398553;32;20188;-58
2021/12/17 07:46:55;;;;;;;11.60;5.83;;;;;;;7.29;84.14;97297.66;4408864;32;20250;-57
2021/12/17 07:49:20;;;;;;;6.17;5.57;;;;;;;7.67;83.07;97293.91;4397052;32;20202;-57
2021/12/17 07:51:46;;;;;;;5.97;5.17;;;;;;;7.68;79.44;97298.16;4400988;32;20197;-57
2021/12/17 07:54:12;;;;;;;6.57;5.40;;;;;;;7.80;78.65;97304.28;4405361;32;20189;-57
2021/12/17 07:56:38;;;;;;;6.03;5.53;;;;;;;8.06;78.81;97303.87;4395077;32;20198;-57
2021/12/17 07:59:09;;;;;;;8.30;5.87;;;;;;;7.97;77.49;97305.22;4392599;32;20202;-57
2021/12/17 08:01:35;;;;;;;6.70;5.90;;;;;;;7.99;75.65;97302.34;4413787;32;20214;-57
2021/12/17 08:04:02;;;;;;;6.70;6.10;;;;;;;7.99;75.47;97303.16;4393756;32;20324;-57
2021/12/17 08:06:27;;;;;;;5.70;5.20;;;;;;;8.08;76.63;97295.72;4412731;32;20280;-57
2021/12/17 08:08:53;;;;;;;6.00;5.43;;;;;;;8.16;77.38;97306.75;4386115;32;20348;-57
2021/12/17 08:11:18;;;;;;;6.30;5.53;;;;;;;8.24;74.75;97303.78;4382835;32;20200;-57
2021/12/17 08:13:45;;;;;;;6.77;6.07;;;;;;;8.41;74.36;97303.13;4401127;32;20198;-57
2021/12/17 08:31:49;;;;;;;7.60;6.90;;;;;;;7.51;73.34;97293.50;4415123;32;20267;-59
2021/12/17 08:34:14;;;;;;;7.03;6.43;;;;;;;6.95;75.57;97295.66;4395398;32;20286;-59
2021/12/17 08:36:40;;;;;;;7.37;6.73;;;;;;;6.70;77.25;97296.53;4407668;32;20192;-59
2021/12/17 08:39:05;;;;;;;7.60;6.23;;;;;;;6.65;78.08;97295.63;4395300;32;20197;-59
2021/12/17 08:41:30;;;;;;;6.70;6.20;;;;;;;6.63;78.28;97295.03;4382894;32;20200;-59
2021/12/17 08:43:56;;;;;;;9.67;7.13;;;;;;;6.35;80.12;97288.37;4406428;32;20198;-60
2021/12/17 08:46:21;;;;;;;6.77;6.23;;;;;;;6.50;79.39;97290.66;4391899;32;20215;-58
2021/12/17 08:48:47;;;;;;;7.63;5.60;;;;;;;6.55;78.92;97296.91;4391340;32;20200;-59
2021/12/17 08:51:22;;;;;;;6.90;6.20;;;;;;;6.55;78.98;97293.47;4388068;32;20211;-59
2021/12/17 08:53:48;;;;;;;5.83;5.43;;;;;;;6.86;78.10;97295.94;4392003;32;20180;-61
2021/12/17 08:56:22;;;;;;;5.90;5.50;;;;;;;6.91;77.72;97290.03;4392295;32;20298;-60
2021/12/17 08:58:51;;;;;;;5.83;5.20;;;;;;;6.92;77.14;97304.03;4392675;32;20244;-61
2021/12/17 09:01:29;;;;;;;5.83;5.33;;;;;;;6.77;77.74;97301.75;4406386;32;20276;-61
2021/12/17 09:03:55;;;;;;;6.20;5.70;;;;;;;6.52;78.59;97291.25;4400098;32;20280;-59
2021/12/17 09:06:28;;;;;;;5.60;5.13;;;;;;;6.67;77.98;97296.97;4397295;32;20276;-60
2021/12/17 09:08:55;;;;;;;6.27;5.67;;;;;;;6.65;77.81;97292.97;4392035;32;20195;-60
2021/12/17 09:11:28;;;;;;;5.23;4.83;;;;;;;6.49;77.71;97295.13;4405825;32;20328;-60
2021/12/17 09:13:56;;;;;;;6.00;5.47;;;;;;;6.54;77.52;97294.50;4392344;32;20291;-59
2021/12/17 09:16:25;;;;;;;5.77;5.37;;;;;;;6.43;77.78;97298.66;4405893;32;20298;-61
2021/12/17 09:18:53;;;;;;;5.80;5.40;;;;;;;6.32;78.35;97299.38;4410459;32;20275;-61
2021/12/17 09:21:21;;;;;;;6.10;5.60;;;;;;;6.36;77.76;97297.09;4392007;32;20279;-60
2021/12/17 09:23:47;;;;;;;5.73;5.33;;;;;;;6.57;77.41;97288.78;4406249;32;20378;-59
2021/12/17 09:26:22;;;;;;;4.77;4.47;;;;;;;6.80;76.66;97291.56;4406123;32;20279;-58
2021/12/17 09:28:51;;;;;;;5.17;4.77;;;;;;;6.99;75.83;97286.28;4405343;32;20191;-60
2021/12/17 09:31:19;;;;;;;5.87;5.47;;;;;;;7.05;75.58;97288.06;4390732;32;20318;-59
2021/12/17 09:33:49;;;;;;;5.70;5.23;;;;;;;7.02;75.32;97294.56;4389645;32;20302;-60
2021/12/17 09:36:20;;;;;;;5.93;5.53;;;;;;;7.13;74.90;97277.16;4411807;32;20279;-59
2021/12/17 09:38:49;;;;;;;5.07;4.77;;;;;;;7.20;74.75;97280.53;4405579;32;20314;-59
2021/12/17 09:41:20;;;;;;;5.60;5.20;;;;;;;6.98;74.79;97282.03;4395618;32;20295;-59
2021/12/17 09:43:46;;;;;;;6.40;5.80;;;;;;;7.23;73.98;97286.19;4389940;32;20283;-59
2021/12/17 09:46:26;;;;;;;6.13;5.63;;;;;;;7.07;74.33;97293.88;4391557;32;20367;-61
2021/12/17 09:48:54;;;;;;;5.90;5.50;;;;;;;6.97;75.13;97280.44;4391579;32;20323;-60
2021/12/17 09:51:22;;;;;;;5.50;5.13;;;;;;;7.21;74.54;97280.31;4391752;32;20294;-60
2021/12/17 09:53:48;;;;;;;6.40;5.80;;;;;;;7.16;74.62;97285.44;4405110;32;20279;-58
2021/12/17 09:56:29;;;;;;;5.00;4.70;;;;;;;7.18;74.36;97277.31;4405604;32;20274;-60
2021/12/17 09:58:55;;;;;;;7.00;5.90;;;;;;;7.42;74.07;97272.94;4391365;32;20283;-61
2021/12/17 10:01:21;;;;;;;8.53;6.73;;;;;;;7.51;73.88;97274.22;4405089;32;20302;-60
2021/12/17 10:03:46;;;;;;;6.67;6.17;;;;;;;7.76;72.50;97268.78;4404701;32;20176;-62
2021/12/17 10:06:33;;;;;;;7.27;6.67;;;;;;;7.55;72.69;97272.75;4391557;32;20172;-61
2021/12/17 10:08:59;;;;;;;5.77;5.37;;;;;;;7.56;72.50;97272.50;4403007;32;20192;-60
2021/12/17 10:11:25;;;;;;;5.33;4.93;;;;;;;7.63;72.02;97271.63;4399312;32;20335;-61
2021/12/17 10:13:50;;;;;;;6.07;5.57;;;;;;;7.68;71.90;97255.91;4390420;32;20185;-59
2021/12/17 10:16:25;;;;;;;5.87;5.47;;;;;;;7.25;73.86;97262.22;4393226;32;20104;-60
2021/12/17 10:18:50;;;;;;;5.53;5.13;;;;;;;7.49;73.61;97249.87;4402992;32;20202;-59
2021/12/17 10:21:23;;;;;;;5.13;4.77;;;;;;;7.64;72.89;97249.47;4393917;32;20319;-59
2021/12/17 10:23:51;;;;;;;5.70;5.30;;;;;;;7.82;72.11;97244.91;4408781;32;20232;-58
2021/12/17 10:26:25;;;;;;;6.93;6.33;;;;;;;7.91;71.95;97240.06;4415695;32;20310;-60
2021/12/17 10:28:59;;;;;;;6.33;5.83;;;;;;;7.93;71.86;97238.00;4408166;32;20315;-60
2021/12/17 10:31:30;;;;;;;5.40;4.90;;;;;;;7.68;72.64;97240.06;4415209;32;20275;-58
2021/12/17 10:34:00;;;;;;;6.17;5.57;;;;;;;7.58;72.95;97241.41;4394064;32;20363;-60
2021/12/17 10:39:47;;;;;;;5.70;5.30;;;;;;;7.77;73.30;97239.47;4407779;32;20306;-59
2021/12/17 10:42:17;;;;;;;6.23;5.83;;;;;;;8.13;71.68;97243.75;4410201;32;20317;-60
2021/12/17 10:45:00;;;;;;;6.07;5.57;;;;;;;8.24;71.38;97236.88;4407804;32;20184;-59
2021/12/17 10:47:33;;;;;;;6.60;6.10;;;;;;;8.01;71.56;97245.59;4414991;32;20288;-60
2021/12/17 10:49:59;;;;;;;8.50;7.30;;;;;;;8.20;71.58;97243.66;4394246;32;20332;-59
2021/12/17 10:52:58;;;;;;;6.23;5.83;;;;;;;8.00;72.24;97244.00;4400171;32;20294;-61
2021/12/17 10:55:16;;;;;;;6.83;6.30;;;;;;;7.92;71.76;97254.88;4403020;32;20361;-62
2021/12/17 10:57:43;;;;;;;6.87;6.37;;;;;;;8.09;71.71;97255.84;4407862;32;20275;-61
2021/12/17 11:00:10;;;;;;;6.20;5.70;;;;;;;8.19;73.63;97250.78;4394826;32;20188;-59
2021/12/17 11:02:37;;;;;;;7.10;6.40;;;;;;;8.59;70.96;97250.09;4406417;32;20279;-61
2021/12/17 11:05:13;;;;;;;6.87;6.37;;;;;;;8.63;69.67;97251.25;4392624;32;20271;-60
2021/12/17 11:07:39;;;;;;;6.87;6.20;;;;;;;8.39;70.56;97254.94;4405586;32;20287;-59
2021/12/17 11:10:05;;;;;;;6.00;5.60;;;;;;;8.69;70.59;97252.97;4394635;32;20394;-58
2021/12/17 11:12:40;;;;;;;6.93;6.23;;;;;;;8.19;70.82;97252.62;4396421;32;20223;-59
2021/12/17 11:15:24;;;;;;;7.03;5.50;;;;;;;8.23;72.13;97251.13;4369701;32;20569;-57
2021/12/17 11:18:02;;;;;;;7.73;6.60;;;;;;;9.20;84.07;97243.34;4405272;32;20279;-55
2021/12/17 11:20:31;;;;;;;6.27;5.33;;;;;;;9.90;75.50;97240.34;4392192;32;20286;-57
2021/12/17 11:23:08;;;;;;;6.03;4.60;;;;;;;12.81;70.17;97232.47;4399930;32;20246;-59
2021/12/17 11:25:35;;;;;;;8.07;7.47;;;;;;;14.13;63.36;97240.75;4406162;32;20206;-59
2021/12/17 11:28:01;;;;;;;6.03;5.53;;;;;;;12.28;56.57;97242.28;4396784;32;20188;-59
2021/12/17 11:30:29;;;;;;;5.83;5.30;;;;;;;13.77;61.92;97230.84;4395222;32;20214;-60
2021/12/17 11:32:56;;;;;;;6.67;6.17;;;;;;;14.85;56.35;97234.19;4414230;32;20180;-60
2021/12/17 11:35:25;;;;;;;7.43;6.70;;;;;;;13.31;53.60;97219.31;4393926;32;20229;-61
2021/12/17 11:37:54;;;;;;;7.03;6.43;;;;;;;11.71;57.26;97222.41;4408488;32;20206;-61
2021/12/17 11:40:40;;;;;;;8.20;7.33;;;;;;;10.86;60.11;97219.66;4394001;32;20321;-59
2021/12/17 11:43:36;;;;;;;7.60;6.90;;;;;;;9.99;63.14;97209.72;4393885;32;20187;-60
2021/12/17 11:46:06;;;;;;;7.33;6.63;;;;;;;9.69;65.83;97215.34;4389819;32;20177;-60
2021/12/17 11:48:33;;;;;;;7.27;6.63;;;;;;;9.46;67.04;97220.78;4397994;32;20184;-59
2021/12/17 11:51:04;;;;;;;6.80;6.20;;;;;;;9.11;68.04;97220.97;4403800;32;20185;-58
2021/12/17 11:53:30;;;;;;;7.63;6.87;;;;;;;8.91;69.22;97230.12;4391898;32;20198;-62
2021/12/17 11:56:02;;;;;;;9.40;8.50;;;;;;;8.84;69.78;97229.44;4394929;32;20244;-58
2021/12/17 11:58:48;;;;;;;7.40;6.90;;;;;;;8.86;70.67;97222.06;4393502;32;20188;-57
2021/12/17 12:04:36;;;;;;;7.13;6.43;;;;;;;8.65;70.35;97219.25;4361347;32;20204;-58
2021/12/17 12:07:33;;;;;;;7.10;6.50;;;;;;;8.56;71.36;97216.97;4358288;32;20189;-58
2021/12/17 12:10:11;;;;;;;7.10;6.27;;;;;;;8.36;73.08;97215.72;4349763;32;20210;-58
2021/12/17 12:21:24;;;;;;;6.37;5.87;;;;;;;8.17;76.30;97197.34;4319977;32;20333;-60
2021/12/17 12:24:16;;;;;;;7.10;6.50;;;;;;;8.00;76.39;97196.44;4318067;33;20302;-59
2021/12/17 12:26:49;;;;;;;6.10;5.47;;;;;;;7.91;76.30;97209.16;4314178;33;20418;-59
2021/12/17 12:29:24;;;;;;;7.27;6.73;;;;;;;7.48;78.37;97209.44;4321447;33;20289;-59
2021/12/17 12:32:20;;;;;;;7.70;6.90;;;;;;;7.56;78.54;97217.06;4322569;33;20274;-59
2021/12/17 12:34:48;;;;;;;7.87;7.17;;;;;;;7.35;79.76;97219.41;4331446;32;20324;-59
2021/12/17 12:37:32;;;;;;;7.13;6.43;;;;;;;7.39;80.04;97213.47;4354465;32;20297;-59
2021/12/17 12:40:14;;;;;;;7.13;6.43;;;;;;;7.96;80.11;97220.88;4340894;32;20304;-59
2021/12/17 12:42:48;;;;;;;7.03;6.40;;;;;;;8.22;76.69;97218.59;4352118;32;20269;-59
2021/12/17 12:45:17;;;;;;;6.93;6.30;;;;;;;7.98;76.34;97222.28;4338423;32;20278;-59
2021/12/17 12:47:51;;;;;;;6.30;5.80;;;;;;;8.09;78.78;97224.13;4354208;32;20312;-59
2021/12/17 12:50:22;;;;;;;6.60;6.00;;;;;;;8.07;77.18;97220.91;4356111;32;20308;-59
2021/12/17 12:53:04;;;;;;;6.73;5.93;;;;;;;7.92;76.90;97223.19;4341314;32;20270;-59
2021/12/17 12:55:45;;;;;;;7.47;6.77;;;;;;;7.75;78.11;97217.78;4349090;32;20288;-59
2021/12/17 12:58:40;;;;;;;7.00;6.50;;;;;;;7.74;78.06;97218.81;4347443;32;20283;-59
2021/12/17 13:01:08;;;;;;;6.37;5.97;;;;;;;7.66;78.18;97231.56;4357729;32;20285;-59
2021/12/17 13:03:37;;;;;;;6.50;6.10;;;;;;;7.22;79.43;97234.44;4355210;32;20319;-60
2021/12/17 13:06:22;;;;;;;6.60;6.10;;;;;;;7.27;79.61;97225.84;4354321;32;20269;-60
2021/12/17 13:08:56;;;;;;;5.87;5.47;;;;;;;7.11;79.96;97229.88;4354676;32;20289;-59
2021/12/17 13:11:24;;;;;;;6.50;6.10;;;;;;;6.93;81.12;97234.41;4351794;32;20340;-59
2021/12/17 13:13:53;;;;;;;6.77;6.33;;;;;;;6.89;81.47;97223.47;4360820;32;20277;-60
2021/12/17 13:22:25;;;;;;;9.03;8.00;;;;;;;6.80;82.95;97233.56;4331252;33;20337;-60
2021/12/17 13:24:51;;;;;;;8.07;7.27;;;;;;;6.95;82.96;97227.06;4339373;33;20324;-61
2021/12/17 13:27:18;;;;;;;7.57;6.97;;;;;;;7.34;81.48;97234.44;4322817;33;20337;-61
2021/12/17 13:29:45;;;;;;;6.53;6.03;;;;;;;7.22;80.79;97230.97;4338785;32;20281;-61
2021/12/17 13:32:17;;;;;;;6.80;6.30;;;;;;;7.54;80.81;97231.50;4326523;33;20282;-60
2021/12/17 13:34:56;;;;;;;7.00;6.50;;;;;;;7.68;78.80;97229.50;4340167;33;20274;-60
2021/12/17 13:37:32;;;;;;;6.63;6.10;;;;;;;7.41;79.73;97237.00;4340458;33;20348;-60
2021/12/17 13:40:09;;;;;;;6.90;6.30;;;;;;;7.39;80.04;97226.66;4340217;33;20296;-59
2021/12/17 13:42:46;;;;;;;7.30;6.80;;;;;;;7.20;81.02;97228.56;4338809;33;20282;-60
2021/12/17 13:45:20;;;;;;;7.20;6.70;;;;;;;7.43;80.71;97232.31;4340790;33;20265;-61
2021/12/17 13:47:56;;;;;;;7.60;7.10;;;;;;;7.76;79.13;97229.94;4326712;33;20274;-60
2021/12/17 13:50:50;;;;;;;7.33;6.83;;;;;;;7.64;79.30;97246.81;4338736;32;20403;-60
2021/12/17 13:53:18;;;;;;;7.47;6.97;;;;;;;7.54;79.52;97256.09;4338525;33;20345;-61
2021/12/17 13:55:47;;;;;;;8.23;7.63;;;;;;;7.51;79.98;97255.72;4341061;32;20282;-60
2021/12/17 13:58:18;;;;;;;8.13;7.53;;;;;;;7.20;80.39;97259.44;4324941;33;20277;-58
2021/12/17 14:00:49;;;;;;;6.80;6.40;;;;;;;7.23;80.72;97248.44;4331732;33;20343;-61
2021/12/17 14:03:19;;;;;;;7.73;7.13;;;;;;;7.63;80.38;97253.12;4339411;33;20278;-59
2021/12/17 14:05:51;;;;;;;7.10;6.60;;;;;;;7.68;79.41;97255.91;4344958;32;20309;-61
2021/12/17 14:08:21;;;;;;;7.57;6.97;;;;;;;7.68;79.59;97253.28;4326680;33;20282;-60
2021/12/17 14:10:59;;;;;;;7.93;7.23;;;;;;;7.28;81.15;97266.22;4327272;33;20412;-60
2021/12/17 14:13:27;;;;;;;7.83;7.23;;;;;;;7.50;80.73;97268.12;4339346;33;20265;-60
2021/12/17 14:15:54;;;;;;;8.43;7.83;;;;;;;7.67;79.79;97264.87;4326347;33;20277;-61
2021/12/17 14:18:26;;;;;;;7.73;7.13;;;;;;;7.64;79.93;97263.47;4339280;33;20448;-59
2021/12/17 14:21:01;;;;;;;8.77;8.17;;;;;;;7.84;78.92;97268.44;4336575;33;20304;-59
2021/12/17 14:23:30;;;;;;;8.30;7.70;;;;;;;7.78;79.53;97269.34;4346139;32;20277;-59
2021/12/17 14:26:00;;;;;;;7.93;7.30;;;;;;;7.72;79.10;97272.87;4349925;32;20287;-60
2021/12/17 14:28:38;;;;;;;8.80;8.10;;;;;;;7.55;80.12;97262.97;4352212;32;20274;-60
2021/12/17 14:31:16;;;;;;;7.77;7.27;;;;;;;7.40;80.24;97269.72;4346944;32;20281;-60
2021/12/17 14:34:00;;;;;;;8.60;7.80;;;;;;;7.44;80.55;97273.53;4354557;32;20292;-61
2021/12/17 14:36:48;;;;;;;8.40;7.70;;;;;;;7.08;80.92;97272.56;4341782;33;20277;-58
2021/12/17 14:39:21;;;;;;;7.90;7.40;;;;;;;7.12;81.27;97267.63;4355024;33;20343;-60
2021/12/17 14:42:00;;;;;;;8.60;7.90;;;;;;;7.37;80.40;97257.75;4349744;32;20338;-59
2021/12/17 14:44:47;;;;;;;8.13;7.53;;;;;;;7.22;80.55;97267.94;4356713;32;20325;-59
2021/12/17 14:47:50;;;;;;;9.37;8.63;;;;;;;7.42;79.79;97257.91;4361212;32;20288;-61
2021/12/17 15:01:33;;;;;;;9.17;8.37;;;;;;;7.55;79.03;97251.63;4361470;32;20319;-60
2021/12/17 15:03:59;;;;;;;9.50;8.80;;;;;;;7.92;77.64;97247.78;4370445;32;20351;-60
2021/12/17 15:06:26;;;;;;;9.80;8.67;;;;;;;7.91;76.98;97242.72;4365853;32;20315;-59
2021/12/17 15:08:53;;;;;;;10.10;9.30;;;;;;;7.81;77.03;97239.84;4362533;32;20383;-59
2021/12/17 15:11:30;;;;;;;11.20;10.30;;;;;;;7.76;77.12;97245.81;4355390;32;20316;-59
2021/12/17 15:13:57;;;;;;;10.00;9.17;;;;;;;7.79;77.58;97233.97;4350099;32;20347;-59
2021/12/17 15:16:24;;;;;;;11.70;10.57;;;;;;;7.44;78.79;97226.81;4356253;32;20281;-59